TAF and METAR

Could not understand the following METAR

YCIN 251330Z AUTO 32005KT 9999 // NCD 25/15 Q1011 RF00.0/000.0

TAF for RAAF Base Curtin Airport

TAF YCIN 251216Z 2514/2602 VRB05KT CAVOK FM260000 02010KT CAVOK
Report created 25. sep 14:16

between 25. sep 16:00 - 26. sep 04:00

wind 5 knots from various directions Clear sky

From 26. sep 02:00

wind 10 knots from NNE (020°) Clear sky